createdAt,value
2023-08-05T00:02:12.774Z,4.17
2023-08-05T00:04:46.915Z,3.90
2023-08-05T00:07:20.093Z,3.57
2023-08-05T00:09:53.482Z,3.90
2023-08-05T00:12:35.582Z,4.00
2023-08-05T00:15:12.933Z,3.70
2023-08-05T00:17:47.133Z,4.03
2023-08-05T00:20:21.513Z,3.80
2023-08-05T00:22:55.754Z,4.10
2023-08-05T00:25:29.109Z,4.27
2023-08-05T00:28:02.390Z,4.40
2023-08-05T00:30:35.694Z,4.50
2023-08-05T00:33:09.329Z,4.20
2023-08-05T00:35:43.298Z,4.67
2023-08-05T00:38:17.439Z,4.10
2023-08-05T00:40:51.580Z,4.47
2023-08-05T00:43:25.282Z,4.40
2023-08-05T00:46:00.171Z,4.80
2023-08-05T00:48:34.278Z,4.80
2023-08-05T00:51:10.237Z,5.07
2023-08-05T00:53:44.142Z,5.00
2023-08-05T00:56:19.307Z,4.93
2023-08-05T00:58:54.966Z,5.17
2023-08-05T01:01:29.200Z,5.10
2023-08-05T01:04:02.748Z,5.03
2023-08-05T01:06:37.863Z,4.57
2023-08-05T01:09:11.745Z,4.70
2023-08-05T01:11:46.936Z,5.00
2023-08-05T01:14:20.612Z,4.97
2023-08-05T01:16:54.012Z,5.13
2023-08-05T01:19:29.472Z,5.40
2023-08-05T01:22:13.711Z,5.97
2023-08-05T01:24:55.495Z,5.37
2023-08-05T01:27:29.488Z,5.10
2023-08-05T01:30:03.502Z,6.17
2023-08-05T01:32:38.229Z,5.87
2023-08-05T01:35:13.810Z,6.30
2023-08-05T01:37:48.232Z,6.07
2023-08-05T01:40:22.633Z,6.37
2023-08-05T01:42:56.961Z,6.27
2023-08-05T01:45:31.343Z,6.30
2023-08-05T01:48:05.329Z,6.83
2023-08-05T01:50:39.230Z,7.30
2023-08-05T01:53:12.953Z,7.80
2023-08-05T01:55:46.272Z,7.53
2023-08-05T01:58:20.546Z,7.67
2023-08-05T02:00:57.403Z,7.80
2023-08-05T02:03:31.573Z,8.00
2023-08-05T02:06:05.103Z,7.57
2023-08-05T02:08:38.715Z,8.50
2023-08-05T02:11:12.189Z,8.40
2023-08-05T02:13:46.098Z,8.63
2023-08-05T02:16:19.408Z,8.33
2023-08-05T02:18:53.595Z,9.57
2023-08-05T02:21:27.682Z,8.77
2023-08-05T02:24:01.116Z,8.93
2023-08-05T02:26:35.327Z,9.80
2023-08-05T02:29:08.609Z,9.93
2023-08-05T02:31:41.644Z,11.25
2023-08-05T02:34:14.783Z,11.43
2023-08-05T02:36:50.335Z,11.03
2023-08-05T02:39:24.442Z,12.07
2023-08-05T02:41:57.496Z,11.77
2023-08-05T02:44:30.678Z,12.50
2023-08-05T02:47:04.015Z,12.90
2023-08-05T02:49:37.728Z,12.40
2023-08-05T02:52:12.920Z,12.70
2023-08-05T02:54:46.018Z,11.60
2023-08-05T02:57:19.026Z,13.40
2023-08-05T02:59:52.769Z,12.50
2023-08-05T03:02:26.241Z,12.63
2023-08-05T03:05:00.377Z,12.20
2023-08-05T03:07:33.654Z,12.73
2023-08-05T03:10:08.138Z,12.80
2023-08-05T03:12:41.722Z,13.50
2023-08-05T03:15:16.293Z,13.25
2023-08-05T03:17:49.910Z,13.13
2023-08-05T03:20:32.253Z,13.00
2023-08-05T03:23:13.764Z,12.53
2023-08-05T03:25:47.061Z,12.43
2023-08-05T03:28:20.465Z,12.33
2023-08-05T03:30:58.162Z,12.17
2023-08-05T03:33:33.811Z,13.23
2023-08-05T03:36:08.154Z,12.50
2023-08-05T03:38:41.954Z,12.43
2023-08-05T03:41:15.244Z,13.50
2023-08-05T03:43:48.619Z,12.77
2023-08-05T03:46:22.899Z,12.40
2023-08-05T03:48:55.810Z,12.70
2023-08-05T03:51:29.720Z,12.80
2023-08-05T03:54:05.058Z,12.70
2023-08-05T03:56:38.557Z,11.63
2023-08-05T03:59:13.353Z,11.33
2023-08-05T04:01:47.037Z,11.43
2023-08-05T04:04:20.557Z,11.23
2023-08-05T04:06:53.802Z,10.23
2023-08-05T04:09:27.883Z,10.83
2023-08-05T04:12:04.701Z,11.57
2023-08-05T04:14:38.878Z,11.27
2023-08-05T04:17:13.672Z,10.55
2023-08-05T04:19:49.860Z,10.47
2023-08-05T04:22:25.600Z,11.17
2023-08-05T04:24:59.933Z,9.83
2023-08-05T04:27:32.993Z,9.80
2023-08-05T04:30:09.160Z,9.70
2023-08-05T04:32:42.603Z,9.53
2023-08-05T04:35:15.839Z,9.23
2023-08-05T04:37:49.243Z,9.43
2023-08-05T04:40:22.971Z,8.27
2023-08-05T04:42:56.575Z,9.03
2023-08-05T04:45:31.304Z,9.33
2023-08-05T04:48:05.675Z,8.43
2023-08-05T04:50:40.562Z,8.30
2023-08-05T04:53:15.801Z,8.17
2023-08-05T04:55:48.903Z,8.70
2023-08-05T04:58:22.470Z,8.90
2023-08-05T05:00:59.663Z,7.50
2023-08-05T05:03:33.637Z,7.73
2023-08-05T05:06:08.256Z,9.47
2023-08-05T05:08:41.488Z,7.50
2023-08-05T05:11:14.655Z,8.17
2023-08-05T05:13:52.062Z,7.70
2023-08-05T05:16:25.697Z,7.37
2023-08-05T05:18:58.434Z,7.53
2023-08-05T05:21:32.651Z,7.00
2023-08-05T05:24:06.384Z,7.03
2023-08-05T05:26:39.443Z,7.27
2023-08-05T05:29:13.270Z,7.13
2023-08-05T05:31:46.858Z,7.00
2023-08-05T05:34:20.282Z,6.60
2023-08-05T05:36:53.849Z,6.67
2023-08-05T05:39:27.248Z,6.50
2023-08-05T05:42:00.961Z,6.57
2023-08-05T05:44:34.081Z,6.55
2023-08-05T05:47:09.562Z,6.00
2023-08-05T05:49:43.306Z,5.80
2023-08-05T05:52:17.877Z,6.33
2023-08-05T05:54:51.018Z,6.00
2023-08-05T05:57:24.714Z,5.30
2023-08-05T05:59:58.448Z,5.47
2023-08-05T06:02:31.895Z,5.67
2023-08-05T06:05:05.500Z,5.43
2023-08-05T06:07:39.652Z,5.40
2023-08-05T06:10:16.384Z,5.00
2023-08-05T06:12:49.626Z,5.00
2023-08-05T06:15:23.625Z,4.57
2023-08-05T06:17:56.832Z,4.63
2023-08-05T06:20:30.242Z,4.73
2023-08-05T06:23:03.669Z,4.83
2023-08-05T06:25:39.306Z,4.53
2023-08-05T06:28:12.791Z,4.47
2023-08-05T06:30:48.664Z,3.90
2023-08-05T06:33:21.942Z,4.00
2023-08-05T06:35:55.061Z,4.00
2023-08-05T06:38:28.789Z,4.23
2023-08-05T06:41:02.172Z,4.43
2023-08-05T06:43:35.361Z,4.17
2023-08-05T06:46:08.970Z,4.47
2023-08-05T06:48:43.054Z,4.47
2023-08-05T06:51:16.448Z,4.23
2023-08-05T06:53:49.839Z,3.70
2023-08-05T06:56:23.356Z,3.87
2023-08-05T06:58:57.443Z,4.00
2023-08-05T07:01:31.924Z,3.53
2023-08-05T07:04:05.390Z,3.77
2023-08-05T07:06:39.892Z,3.93
2023-08-05T07:09:13.700Z,4.17
2023-08-05T07:11:47.730Z,3.60
2023-08-05T07:14:20.798Z,3.67
2023-08-05T07:16:53.985Z,3.80
2023-08-05T07:19:27.282Z,3.73
2023-08-05T07:22:01.081Z,3.95
2023-08-05T07:24:34.058Z,3.80
2023-08-05T07:27:09.286Z,4.30
2023-08-05T07:29:44.504Z,4.10
2023-08-05T07:32:17.757Z,3.30
2023-08-05T07:34:55.115Z,3.77
2023-08-05T07:37:31.106Z,3.60
2023-08-05T07:40:07.178Z,3.57
2023-08-05T07:42:40.690Z,3.40
2023-08-05T07:45:19.552Z,3.17
2023-08-05T07:47:53.377Z,3.50
2023-08-05T07:50:27.885Z,3.40
2023-08-05T07:53:01.314Z,3.33
2023-08-05T07:55:36.393Z,3.77
2023-08-05T07:58:09.714Z,3.27
2023-08-05T08:00:43.366Z,3.33
2023-08-05T08:03:16.599Z,3.03
2023-08-05T08:05:50.363Z,2.97
2023-08-05T08:08:24.437Z,3.30
2023-08-05T08:10:58.676Z,3.43
2023-08-05T08:13:31.932Z,3.00
2023-08-05T08:16:06.026Z,3.13
2023-08-05T08:18:39.330Z,2.63
2023-08-05T08:21:12.826Z,2.70
2023-08-05T08:23:46.535Z,2.97
2023-08-05T08:26:19.937Z,2.83
2023-08-05T08:28:52.980Z,2.80
2023-08-05T08:31:31.485Z,3.30
2023-08-05T08:34:05.478Z,3.00
2023-08-05T08:36:38.837Z,3.23
2023-08-05T08:39:12.167Z,3.13
2023-08-05T08:41:47.559Z,2.80
2023-08-05T08:44:22.470Z,2.60
2023-08-05T08:46:56.724Z,2.80
2023-08-05T08:49:33.779Z,3.20
2023-08-05T08:52:10.302Z,2.90
2023-08-05T08:54:44.076Z,2.80
2023-08-05T08:57:17.473Z,2.73
2023-08-05T08:59:51.499Z,2.90
2023-08-05T09:02:27.368Z,2.77
2023-08-05T09:05:01.696Z,2.70
2023-08-05T09:07:35.563Z,3.73
2023-08-05T09:10:12.735Z,2.80
2023-08-05T09:12:47.052Z,2.50
2023-08-05T09:15:23.053Z,3.47
2023-08-05T09:18:00.874Z,2.40
2023-08-05T09:20:34.983Z,2.57
2023-08-05T09:23:10.496Z,2.67
2023-08-05T09:25:50.789Z,3.67
2023-08-05T09:28:34.793Z,2.63
2023-08-05T09:31:18.472Z,2.60
2023-08-05T09:33:52.050Z,3.43
2023-08-05T09:36:26.617Z,2.70
2023-08-05T09:39:08.347Z,2.50
2023-08-05T09:41:44.501Z,3.83
2023-08-05T09:44:18.138Z,3.03
2023-08-05T09:46:53.571Z,2.80
2023-08-05T09:49:27.324Z,2.70
2023-08-05T09:52:02.464Z,2.60
2023-08-05T09:54:37.010Z,2.40
2023-08-05T09:57:10.992Z,2.23
2023-08-05T09:59:45.316Z,2.73
2023-08-05T10:02:26.546Z,2.63
2023-08-05T10:05:00.917Z,2.50
2023-08-05T10:07:34.394Z,2.77
2023-08-05T10:10:13.446Z,2.25
2023-08-05T10:12:51.706Z,2.17
2023-08-05T10:15:28.674Z,2.60
2023-08-05T10:18:02.351Z,2.40
2023-08-05T10:20:40.997Z,2.17
2023-08-05T10:23:16.187Z,2.30
2023-08-05T10:25:51.350Z,2.40
2023-08-05T10:28:45.511Z,2.43
2023-08-05T10:31:32.828Z,2.17
2023-08-05T10:34:20.451Z,2.03
2023-08-05T10:37:01.595Z,2.53
2023-08-05T10:39:47.238Z,2.05
2023-08-05T10:42:35.974Z,2.07
2023-08-05T10:45:12.137Z,2.30
2023-08-05T10:47:53.366Z,1.90
2023-08-05T10:50:28.551Z,2.10
2023-08-05T10:53:05.286Z,1.67
2023-08-05T10:55:49.579Z,1.90
2023-08-05T10:58:29.743Z,2.00
2023-08-05T11:01:04.877Z,2.17
2023-08-05T11:03:44.388Z,2.30
2023-08-05T11:06:23.994Z,2.10
2023-08-05T11:09:03.897Z,2.00
2023-08-05T11:11:37.537Z,1.70
2023-08-05T11:14:10.653Z,2.20
2023-08-05T11:16:49.680Z,2.13
2023-08-05T11:19:22.880Z,2.47
2023-08-05T11:21:56.507Z,2.37
2023-08-05T11:24:30.868Z,3.07
2023-08-05T11:27:04.319Z,2.40
2023-08-05T11:29:50.946Z,1.97
2023-08-05T11:32:32.303Z,2.40
2023-08-05T11:35:10.755Z,1.97
2023-08-05T11:37:44.056Z,2.50
2023-08-05T11:40:17.693Z,2.10
2023-08-05T11:42:50.779Z,2.00
2023-08-05T11:45:24.313Z,1.93
2023-08-05T11:47:57.861Z,1.97
2023-08-05T11:50:39.053Z,2.00
2023-08-05T11:53:13.725Z,1.80
2023-08-05T11:55:48.066Z,1.97
2023-08-05T11:58:22.452Z,2.00
2023-08-05T12:01:01.193Z,1.60
2023-08-05T12:03:36.506Z,1.60
2023-08-05T12:06:09.905Z,1.60
2023-08-05T12:08:44.659Z,1.67
2023-08-05T12:11:17.355Z,1.60
2023-08-05T12:13:51.125Z,1.50
2023-08-05T12:16:24.377Z,1.60
2023-08-05T12:19:00.287Z,1.73
2023-08-05T12:24:08.216Z,1.70
2023-08-05T12:26:41.369Z,1.50
2023-08-05T12:29:15.169Z,1.60
2023-08-05T12:31:48.393Z,1.50
2023-08-05T12:34:21.444Z,1.80
2023-08-05T12:36:54.543Z,1.60
2023-08-05T12:39:27.805Z,1.50
2023-08-05T12:42:01.261Z,1.30
2023-08-05T12:44:34.477Z,1.40
2023-08-05T12:47:08.048Z,1.33
2023-08-05T12:49:41.721Z,1.47
2023-08-05T12:52:14.928Z,1.50
2023-08-05T12:54:47.986Z,1.30
2023-08-05T12:57:21.870Z,1.50
2023-08-05T12:59:55.375Z,1.43
2023-08-05T13:02:29.387Z,1.43
2023-08-05T13:05:02.841Z,1.40
2023-08-05T13:07:36.979Z,1.50
2023-08-05T13:10:12.627Z,1.27
2023-08-05T13:12:46.999Z,1.20
2023-08-05T13:15:20.595Z,1.30
2023-08-05T13:17:54.166Z,1.43
2023-08-05T13:20:27.978Z,1.63
2023-08-05T13:23:01.599Z,1.40
2023-08-05T13:25:34.993Z,1.40
2023-08-05T13:28:09.027Z,1.40
2023-08-05T13:30:42.438Z,1.37
2023-08-05T13:33:15.516Z,1.47
2023-08-05T13:35:50.454Z,1.43
2023-08-05T13:38:23.611Z,1.30
2023-08-05T13:40:58.645Z,1.60
2023-08-05T13:43:32.259Z,1.70
2023-08-05T13:46:06.622Z,1.40
2023-08-05T13:48:40.295Z,1.70
2023-08-05T13:51:14.277Z,1.60
2023-08-05T13:53:47.299Z,1.70
2023-08-05T13:56:20.446Z,1.40
2023-08-05T13:58:53.846Z,2.00
2023-08-05T14:01:27.059Z,1.80
2023-08-05T14:04:00.496Z,1.60
2023-08-05T14:06:34.373Z,2.00
2023-08-05T14:09:09.546Z,2.20
2023-08-05T14:11:43.204Z,2.00
2023-08-05T14:14:16.615Z,2.03
2023-08-05T14:16:49.493Z,2.20
2023-08-05T14:19:23.276Z,2.17
2023-08-05T14:21:57.081Z,2.20
2023-08-05T14:24:30.273Z,2.20
2023-08-05T14:27:04.424Z,2.20
2023-08-05T14:29:37.882Z,2.20
2023-08-05T14:32:12.188Z,2.10
2023-08-05T14:34:47.432Z,2.30
2023-08-05T14:37:21.352Z,2.37
2023-08-05T14:39:56.642Z,2.30
2023-08-05T14:42:30.798Z,2.57
2023-08-05T14:45:04.282Z,2.70
2023-08-05T14:47:38.436Z,2.27
2023-08-05T14:50:13.813Z,2.23
2023-08-05T14:52:49.308Z,2.10
2023-08-05T14:55:22.492Z,2.50
2023-08-05T14:57:56.284Z,2.10
2023-08-05T15:00:29.617Z,2.50
2023-08-05T15:03:03.199Z,2.50
2023-08-05T15:05:39.216Z,2.10
2023-08-05T15:08:12.787Z,2.47
2023-08-05T15:10:46.547Z,2.43
2023-08-05T15:13:19.527Z,2.40
2023-08-05T15:15:53.584Z,2.33
2023-08-05T15:18:27.685Z,2.50
2023-08-05T15:21:04.581Z,2.57
2023-08-05T15:23:38.437Z,2.70
2023-08-05T15:26:12.246Z,2.77
2023-08-05T15:28:45.321Z,2.80
2023-08-05T15:31:21.841Z,2.63
2023-08-05T15:33:55.295Z,2.13
2023-08-05T15:36:28.490Z,3.00
2023-08-05T15:39:02.197Z,2.87
2023-08-05T15:41:36.080Z,2.60
2023-08-05T15:44:10.133Z,2.80
2023-08-05T15:46:43.515Z,3.20
2023-08-05T15:49:19.324Z,3.17
2023-08-05T15:51:54.197Z,3.47
2023-08-05T15:54:27.590Z,3.00
2023-08-05T15:57:04.636Z,2.97
2023-08-05T15:59:37.883Z,3.17
2023-08-05T16:02:12.002Z,3.30
2023-08-05T16:04:45.898Z,3.10
2023-08-05T16:07:19.191Z,2.63
2023-08-05T16:09:52.706Z,3.03
2023-08-05T16:12:25.860Z,2.80
2023-08-05T16:15:00.800Z,2.70
2023-08-05T16:17:35.242Z,3.20
2023-08-05T16:20:13.492Z,3.37
2023-08-05T16:22:46.713Z,2.63
2023-08-05T16:25:20.059Z,3.60
2023-08-05T16:27:54.863Z,2.60
2023-08-05T16:30:28.025Z,3.03
2023-08-05T16:33:02.464Z,2.67
2023-08-05T16:35:36.057Z,3.07
2023-08-05T16:38:10.336Z,2.80
2023-08-05T16:40:43.591Z,2.53
2023-08-05T16:43:16.608Z,3.03
2023-08-05T16:45:51.068Z,2.60
2023-08-05T16:48:25.575Z,3.20
2023-08-05T16:50:58.907Z,3.00
2023-08-05T16:53:34.128Z,3.20
2023-08-05T16:56:09.399Z,3.13
2023-08-05T16:58:43.356Z,3.17
2023-08-05T17:01:18.465Z,3.30
2023-08-05T17:03:51.996Z,3.30
2023-08-05T17:06:26.879Z,3.37
2023-08-05T17:09:00.237Z,3.00
2023-08-05T17:11:33.552Z,3.20
2023-08-05T17:14:06.686Z,3.33
2023-08-05T17:16:40.465Z,3.20
2023-08-05T17:19:14.019Z,3.70
2023-08-05T17:21:47.414Z,3.40
2023-08-05T17:24:20.598Z,3.77
2023-08-05T17:26:53.992Z,3.10
2023-08-05T17:29:27.078Z,3.47
2023-08-05T17:32:00.798Z,5.50
2023-08-05T17:34:34.617Z,4.97
2023-08-05T17:37:08.436Z,8.30
2023-08-05T17:39:43.253Z,8.13
2023-08-05T17:42:16.418Z,8.73
2023-08-05T17:44:49.504Z,5.97
2023-08-05T17:47:22.680Z,5.70
2023-08-05T17:49:55.984Z,4.67
2023-08-05T17:52:29.889Z,3.80
2023-08-05T17:55:03.191Z,4.13
2023-08-05T17:57:36.328Z,3.80
2023-08-05T18:00:13.480Z,3.97
2023-08-05T18:02:47.990Z,3.47
2023-08-05T18:05:23.579Z,3.73
2023-08-05T18:07:57.537Z,4.03
2023-08-05T18:10:31.164Z,3.60
2023-08-05T18:13:06.454Z,4.13
2023-08-05T18:15:40.189Z,4.30
2023-08-05T18:18:14.093Z,3.77
2023-08-05T18:20:47.509Z,4.03
2023-08-05T18:23:21.392Z,4.20
2023-08-05T18:25:55.505Z,4.80
2023-08-05T18:28:28.867Z,4.10
2023-08-05T18:31:02.802Z,4.20
2023-08-05T18:33:36.000Z,4.57
2023-08-05T18:36:09.724Z,4.93
2023-08-05T18:38:42.878Z,4.77
2023-08-05T18:41:17.066Z,4.83
2023-08-05T18:43:50.201Z,4.50
2023-08-05T18:46:23.792Z,4.53
2023-08-05T18:48:57.193Z,4.70
2023-08-05T18:51:31.528Z,4.90
2023-08-05T18:54:04.648Z,4.97
2023-08-05T18:56:37.876Z,4.47
2023-08-05T18:59:11.073Z,5.13
2023-08-05T19:01:44.533Z,4.37
2023-08-05T19:04:19.683Z,5.00
2023-08-05T19:06:55.740Z,4.80
2023-08-05T19:09:29.637Z,4.60
2023-08-05T19:12:03.379Z,4.63
2023-08-05T19:14:36.502Z,4.37
2023-08-05T19:17:10.544Z,4.50
2023-08-05T19:19:43.881Z,4.17
2023-08-05T19:22:17.233Z,3.83
2023-08-05T19:24:50.599Z,3.87
2023-08-05T19:27:28.041Z,4.23
2023-08-05T19:30:03.538Z,4.30
2023-08-05T19:32:37.020Z,4.00
2023-08-05T19:35:13.138Z,4.17
2023-08-05T19:37:47.072Z,4.00
2023-08-05T19:40:20.831Z,4.80
2023-08-05T19:42:54.923Z,4.00
2023-08-05T19:45:28.118Z,4.17
2023-08-05T19:48:02.150Z,4.07
2023-08-05T19:50:37.501Z,4.13
2023-08-05T19:53:10.921Z,4.80
2023-08-05T19:55:44.374Z,4.47
2023-08-05T19:58:17.571Z,4.83
2023-08-05T20:00:54.334Z,4.40
2023-08-05T20:03:28.093Z,4.73
2023-08-05T20:06:01.596Z,4.50
2023-08-05T20:08:34.985Z,4.87
2023-08-05T20:11:08.249Z,4.17
2023-08-05T20:13:41.083Z,4.37
2023-08-05T20:16:15.184Z,4.20
2023-08-05T20:18:48.290Z,4.87
2023-08-05T20:21:21.457Z,4.20
2023-08-05T20:23:57.020Z,4.03
2023-08-05T20:26:30.602Z,4.17
2023-08-05T20:29:03.849Z,5.17
2023-08-05T20:31:37.014Z,4.43
2023-08-05T20:34:10.492Z,4.73
2023-08-05T20:36:45.709Z,4.27
2023-08-05T20:39:19.211Z,5.33
2023-08-05T20:41:54.142Z,4.90
2023-08-05T20:44:27.642Z,4.57
2023-08-05T20:47:01.678Z,4.40
2023-08-05T20:49:35.785Z,4.10
2023-08-05T20:52:11.508Z,5.03
2023-08-05T20:54:44.601Z,4.30
2023-08-05T20:57:18.482Z,4.00
2023-08-05T20:59:52.104Z,4.85
2023-08-05T21:02:25.754Z,4.27
2023-08-05T21:05:01.209Z,4.17
2023-08-05T21:07:35.643Z,4.50
2023-08-05T21:10:11.148Z,4.63
2023-08-05T21:12:44.929Z,4.50
2023-08-05T21:15:18.292Z,4.30
2023-08-05T21:17:51.485Z,3.90
2023-08-05T21:20:25.413Z,4.80
2023-08-05T21:22:59.832Z,4.60
2023-08-05T21:25:33.165Z,4.35
2023-08-05T21:28:06.351Z,4.70
2023-08-05T21:30:39.892Z,4.47
2023-08-05T21:33:13.031Z,4.13
2023-08-05T21:35:45.989Z,4.90
2023-08-05T21:38:19.468Z,4.80
2023-08-05T21:40:53.601Z,4.70
2023-08-05T21:43:27.211Z,5.10
2023-08-05T21:46:01.255Z,4.80
2023-08-05T21:48:35.230Z,4.83
2023-08-05T21:51:09.027Z,4.60
2023-08-05T21:53:42.927Z,5.00
2023-08-05T21:56:16.951Z,4.67
2023-08-05T21:58:50.157Z,4.77
2023-08-05T22:01:23.379Z,4.43
2023-08-05T22:03:57.204Z,4.60
2023-08-05T22:06:30.545Z,4.83
2023-08-05T22:09:05.745Z,4.70
2023-08-05T22:11:39.008Z,4.73
2023-08-05T22:14:12.868Z,4.60
2023-08-05T22:16:46.016Z,4.67
2023-08-05T22:19:20.069Z,4.60
2023-08-05T22:21:55.752Z,5.33
2023-08-05T22:24:40.888Z,4.80
2023-08-05T22:27:17.040Z,5.00
2023-08-05T22:29:50.588Z,4.80
2023-08-05T22:32:24.212Z,4.93
2023-08-05T22:34:58.201Z,5.20
2023-08-05T22:37:31.448Z,4.90
2023-08-05T22:40:05.711Z,5.30
2023-08-05T22:42:39.052Z,5.07
2023-08-05T22:45:14.295Z,5.45
2023-08-05T22:47:47.725Z,5.60
2023-08-05T22:50:22.581Z,5.87
2023-08-05T22:52:55.912Z,5.60
2023-08-05T22:55:30.330Z,5.57
2023-08-05T22:58:03.727Z,5.97
2023-08-05T23:00:36.917Z,5.63
2023-08-05T23:03:10.935Z,5.37
2023-08-05T23:05:44.143Z,6.20
2023-08-05T23:08:17.716Z,5.70
2023-08-05T23:10:51.528Z,6.23
2023-08-05T23:13:25.429Z,5.50
2023-08-05T23:15:58.633Z,5.70
2023-08-05T23:18:32.408Z,6.20
2023-08-05T23:21:08.048Z,5.60
2023-08-05T23:23:41.578Z,5.07
2023-08-05T23:26:15.174Z,5.90
2023-08-05T23:28:48.604Z,5.87
2023-08-05T23:31:21.986Z,6.10
2023-08-05T23:33:55.154Z,6.07
2023-08-05T23:36:28.958Z,6.00
2023-08-05T23:39:02.764Z,5.47
2023-08-05T23:41:36.104Z,7.03
2023-08-05T23:44:09.766Z,5.97
2023-08-05T23:46:44.005Z,6.77
2023-08-05T23:49:17.981Z,5.83
2023-08-05T23:51:51.502Z,6.10
2023-08-05T23:54:25.195Z,6.60
2023-08-05T23:56:59.193Z,6.13
2023-08-05T23:59:32.589Z,6.13
